Time;durP1;ratioP1;P1;durP2;ratioP2;P2;SDS_P1;SDS_P2;PMS_P1;PMS_P2;Temp;Humidity;BMP_temperature;BMP_pressure;BME280_temperature;BME280_humidity;BME280_pressure;Samples;Min_cycle;Max_cycle;Signal;HPM_P1;HPM_P2
2022/06/14 00:03:11;;;;;;;9.75;8.07;;;;;;;;;;6199751;23;20016;-79
2022/06/14 00:05:36;;;;;;;10.73;8.50;;;;;;;;;;6217527;23;20005;-78
2022/06/14 00:08:02;;;;;;;8.95;7.78;;;;;;;;;;6192008;23;20004;-79
2022/06/14 00:10:28;;;;;;;9.18;8.18;;;;;;;;;;6244381;23;20048;-79
2022/06/14 00:12:53;;;;;;;9.98;7.43;;;;;;;;;;6217568;23;20053;-78
2022/06/14 00:15:19;;;;;;;9.05;8.15;;;;;;;;;;6194445;23;20111;-79
2022/06/14 00:17:44;;;;;;;16.27;8.35;;;;;;;;;;6229248;23;20004;-79
2022/06/14 00:20:10;;;;;;;10.52;7.50;;;;;;;;;;6194545;23;20087;-79
2022/06/14 00:22:36;;;;;;;12.98;7.63;;;;;;;;;;6246141;23;20015;-78
2022/06/14 00:25:02;;;;;;;10.35;7.85;;;;;;;;;;6194037;23;20111;-78
2022/06/14 00:27:28;;;;;;;10.55;8.13;;;;;;;;;;6246159;23;20419;-79
2022/06/14 00:29:53;;;;;;;10.95;8.50;;;;;;;;;;6246308;23;20331;-78
2022/06/14 00:32:19;;;;;;;9.02;7.65;;;;;;;;;;6245994;23;20004;-77
2022/06/14 00:34:44;;;;;;;11.20;7.93;;;;;;;;;;6246157;23;20006;-78
2022/06/14 00:37:13;;;;;;;14.75;8.13;;;;;;;;;;6261868;23;20072;-79
2022/06/14 00:39:38;;;;;;;10.32;7.88;;;;;;;;;;6194312;23;20012;-78
2022/06/14 00:42:04;;;;;;;9.05;7.88;;;;;;;;;;6218974;23;20004;-78
2022/06/14 00:44:30;;;;;;;11.95;8.07;;;;;;;;;;6245994;23;20032;-79
2022/06/14 00:47:04;;;;;;;12.27;8.25;;;;;;;;;;6246239;23;20034;-78
2022/06/14 00:49:41;;;;;;;9.45;8.05;;;;;;;;;;6219719;23;20019;-79
2022/06/14 00:52:16;;;;;;;11.48;8.38;;;;;;;;;;6219687;23;20009;-76
2022/06/14 00:54:41;;;;;;;10.70;7.65;;;;;;;;;;6195496;23;20420;-79
2022/06/14 00:57:11;;;;;;;9.13;8.10;;;;;;;;;;6207112;23;20015;-79
2022/06/14 00:59:48;;;;;;;;;;;;;;;;;;6251517;23;20050;-78
2022/06/14 01:02:17;;;;;;;10.57;7.95;;;;;;;;;;6193761;23;19983;-78
2022/06/14 01:04:43;;;;;;;17.05;9.10;;;;;;;;;;6194688;23;20035;-79
2022/06/14 01:07:20;;;;;;;11.15;7.88;;;;;;;;;;6246535;23;20003;-78
2022/06/14 01:09:57;;;;;;;9.05;7.65;;;;;;;;;;6194640;23;20095;-78
2022/06/14 01:12:26;;;;;;;12.00;7.93;;;;;;;;;;6194388;23;20415;-77
2022/06/14 01:15:07;;;;;;;10.77;8.18;;;;;;;;;;6195126;23;20012;-78
2022/06/14 01:17:34;;;;;;;9.80;8.75;;;;;;;;;;6258113;22;20000;-79
2022/06/14 01:19:59;;;;;;;13.43;9.10;;;;;;;;;;6198205;23;20335;-77
2022/06/14 01:22:26;;;;;;;10.48;8.88;;;;;;;;;;6246105;23;20008;-78
2022/06/14 01:24:52;;;;;;;11.93;8.68;;;;;;;;;;6245540;23;20006;-78
2022/06/14 01:27:17;;;;;;;12.40;9.18;;;;;;;;;;6250411;23;20031;-77
2022/06/14 01:29:46;;;;;;;11.20;8.88;;;;;;;;;;6193872;23;19996;-78
2022/06/14 01:32:12;;;;;;;10.10;8.73;;;;;;;;;;6218580;23;20090;-79
2022/06/14 01:34:39;;;;;;;12.80;8.48;;;;;;;;;;6194053;23;20000;-78
2022/06/14 01:37:05;;;;;;;9.65;7.97;;;;;;;;;;6223775;23;20004;-79
2022/06/14 01:39:30;;;;;;;10.95;8.48;;;;;;;;;;6205121;23;20151;-77
2022/06/14 01:41:59;;;;;;;10.40;7.78;;;;;;;;;;6193720;23;20009;-78
2022/06/14 01:44:38;;;;;;;9.95;7.82;;;;;;;;;;6245082;23;20004;-77
2022/06/14 01:47:19;;;;;;;10.45;7.82;;;;;;;;;;6195334;23;20026;-78
2022/06/14 01:52:55;;;;;;;9.43;7.47;;;;;;;;;;6170388;23;20473;-79
2022/06/14 01:55:25;;;;;;;9.23;7.32;;;;;;;;;;6218436;23;20099;-78
2022/06/14 01:57:59;;;;;;;10.98;8.00;;;;;;;;;;6224249;23;20039;-77
2022/06/14 02:00:28;;;;;;;8.40;7.55;;;;;;;;;;6200578;23;20419;-79
2022/06/14 02:06:11;;;;;;;10.27;7.93;;;;;;;;;;6222396;23;20016;-78
2022/06/14 02:08:39;;;;;;;9.07;8.00;;;;;;;;;;6195371;23;20006;-78
2022/06/14 02:11:29;;;;;;;14.18;7.78;;;;;;;;;;6218952;23;20014;-78
2022/06/14 02:14:02;;;;;;;11.30;8.20;;;;;;;;;;6218424;23;20096;-79
2022/06/14 02:16:50;;;;;;;14.13;8.38;;;;;;;;;;6219390;23;20012;-77
2022/06/14 02:19:20;;;;;;;15.85;8.50;;;;;;;;;;6200706;23;20033;-77
2022/06/14 02:21:54;;;;;;;10.15;8.50;;;;;;;;;;6226433;23;20363;-77
2022/06/14 02:24:21;;;;;;;8.73;7.82;;;;;;;;;;6194626;23;20000;-78
2022/06/14 02:27:21;;;;;;;9.38;7.32;;;;;;;;;;6218726;23;19997;-80
2022/06/14 02:29:49;;;;;;;11.15;8.07;;;;;;;;;;6244209;23;20325;-80
2022/06/14 02:32:24;;;;;;;11.85;7.93;;;;;;;;;;6218688;23;20000;-78
2022/06/14 02:34:50;;;;;;;10.27;7.38;;;;;;;;;;6194549;23;20019;-78
2022/06/14 02:37:20;;;;;;;8.75;7.28;;;;;;;;;;6217928;23;20008;-78
2022/06/14 02:40:04;;;;;;;10.50;7.28;;;;;;;;;;6206379;22;20002;-77
2022/06/14 02:42:35;;;;;;;15.02;7.90;;;;;;;;;;6222328;23;20091;-79
2022/06/14 02:45:12;;;;;;;18.20;7.05;;;;;;;;;;6218007;23;20011;-80
2022/06/14 02:47:44;;;;;;;9.30;7.40;;;;;;;;;;6195909;23;20394;-79
2022/06/14 02:50:14;;;;;;;14.00;7.30;;;;;;;;;;6194599;23;20001;-80
2022/06/14 02:52:47;;;;;;;7.70;6.90;;;;;;;;;;6219316;23;20000;-79
2022/06/14 02:55:43;;;;;;;14.27;6.95;;;;;;;;;;6193675;23;20381;-80
2022/06/14 02:58:21;;;;;;;10.02;7.13;;;;;;;;;;6210500;23;20011;-77
2022/06/14 03:00:58;;;;;;;11.00;6.72;;;;;;;;;;6234465;23;20000;-80
2022/06/14 03:03:38;;;;;;;11.75;7.10;;;;;;;;;;6194423;23;20473;-78
2022/06/14 03:06:25;;;;;;;12.48;6.88;;;;;;;;;;6219212;23;20004;-79
2022/06/14 03:09:24;;;;;;;9.40;6.57;;;;;;;;;;6245902;23;20529;-79
2022/06/14 03:12:08;;;;;;;11.68;6.78;;;;;;;;;;6162893;23;20011;-79
2022/06/14 03:14:56;;;;;;;10.10;7.15;;;;;;;;;;6217836;23;20000;-81
2022/06/14 03:17:46;;;;;;;11.32;6.40;;;;;;;;;;6244209;23;20359;-78
2022/06/14 03:20:22;;;;;;;12.82;6.75;;;;;;;;;;6226074;23;20000;-77
2022/06/14 03:22:57;;;;;;;9.32;6.95;;;;;;;;;;6219761;23;20074;-79
2022/06/14 03:25:23;;;;;;;13.18;6.80;;;;;;;;;;6195732;23;20431;-79
2022/06/14 03:28:02;;;;;;;16.38;7.07;;;;;;;;;;6243804;23;20004;-78
2022/06/14 03:30:48;;;;;;;9.48;6.35;;;;;;;;;;6192942;23;20001;-77
2022/06/14 03:33:43;;;;;;;10.52;6.97;;;;;;;;;;6169360;23;20383;-76
2022/06/14 03:36:10;;;;;;;12.40;7.00;;;;;;;;;;6219239;23;20000;-77
2022/06/14 03:38:53;;;;;;;8.98;6.53;;;;;;;;;;6243948;23;20012;-78
2022/06/14 03:41:27;;;;;;;14.18;7.47;;;;;;;;;;6181627;23;20051;-76
2022/06/14 03:43:52;;;;;;;15.07;7.20;;;;;;;;;;6245234;23;20004;-77
2022/06/14 03:46:21;;;;;;;11.77;7.00;;;;;;;;;;6192227;23;20522;-77
2022/06/14 03:48:48;;;;;;;10.23;6.47;;;;;;;;;;6244435;23;20030;-77
2022/06/14 03:51:31;;;;;;;12.88;6.40;;;;;;;;;;6217360;23;20020;-77
2022/06/14 03:54:12;;;;;;;10.75;6.68;;;;;;;;;;6194106;23;20000;-77
2022/06/14 03:56:46;;;;;;;14.70;6.32;;;;;;;;;;6243594;23;20004;-79
2022/06/14 03:59:30;;;;;;;7.22;6.47;;;;;;;;;;6244315;23;20018;-78
2022/06/14 04:01:59;;;;;;;9.77;6.60;;;;;;;;;;6250419;22;20012;-78
2022/06/14 04:05:06;;;;;;;7.65;5.82;;;;;;;;;;6217772;23;20015;-78
2022/06/14 04:08:07;;;;;;;10.15;7.38;;;;;;;;;;6236956;23;20436;-77
2022/06/14 04:10:38;;;;;;;6.63;5.80;;;;;;;;;;6092135;23;20460;-77
2022/06/14 04:13:15;;;;;;;12.65;6.38;;;;;;;;;;6172367;23;20424;-77
2022/06/14 04:15:45;;;;;;;9.77;5.97;;;;;;;;;;6217584;23;20000;-77
2022/06/14 04:18:50;;;;;;;12.35;6.45;;;;;;;;;;6217453;23;20003;-77
2022/06/14 04:21:46;;;;;;;9.93;5.97;;;;;;;;;;6075089;23;20346;-78
2022/06/14 04:24:47;;;;;;;10.18;6.47;;;;;;;;;;6245530;23;20004;-78
2022/06/14 04:27:35;;;;;;;7.90;6.20;;;;;;;;;;6217345;23;20370;-77
2022/06/14 04:30:17;;;;;;;14.30;5.97;;;;;;;;;;6244235;23;20075;-78
2022/06/14 04:33:05;;;;;;;8.63;6.20;;;;;;;;;;6218288;23;20404;-78
2022/06/14 04:35:59;;;;;;;10.20;6.00;;;;;;;;;;6193136;23;20002;-78
2022/06/14 04:38:33;;;;;;;9.48;6.22;;;;;;;;;;6211539;23;20012;-78
2022/06/14 04:41:15;;;;;;;9.88;5.63;;;;;;;;;;6222069;23;20000;-78
2022/06/14 04:44:04;;;;;;;8.27;6.03;;;;;;;;;;6224500;23;20004;-78
2022/06/14 04:46:37;;;;;;;9.18;5.38;;;;;;;;;;6217987;23;20015;-79
2022/06/14 04:49:11;;;;;;;9.85;5.85;;;;;;;;;;6217997;23;20095;-78
2022/06/14 04:51:39;;;;;;;6.88;5.40;;;;;;;;;;6218182;23;20004;-78
2022/06/14 04:54:24;;;;;;;5.82;4.97;;;;;;;;;;6217698;23;20090;-79
2022/06/14 04:57:02;;;;;;;11.90;5.40;;;;;;;;;;6247959;23;20010;-76
2022/06/14 04:59:33;;;;;;;10.57;5.32;;;;;;;;;;6194658;23;20011;-77
2022/06/14 05:02:10;;;;;;;9.90;5.40;;;;;;;;;;6226814;22;20001;-78
2022/06/14 05:04:38;;;;;;;10.30;5.32;;;;;;;;;;6221309;23;20047;-77
2022/06/14 05:07:12;;;;;;;8.45;5.00;;;;;;;;;;6219452;23;19996;-78
2022/06/14 05:09:44;;;;;;;8.20;5.05;;;;;;;;;;6220450;23;20004;-78
2022/06/14 05:12:31;;;;;;;6.93;5.13;;;;;;;;;;6218795;23;20035;-78
2022/06/14 05:14:58;;;;;;;7.55;5.53;;;;;;;;;;6221036;23;20012;-77
2022/06/14 05:17:28;;;;;;;7.78;5.00;;;;;;;;;;6245154;23;20052;-77
2022/06/14 05:20:13;;;;;;;9.50;5.00;;;;;;;;;;6195069;23;20107;-77
2022/06/14 05:23:22;;;;;;;6.70;4.82;;;;;;;;;;6232478;23;20019;-78
2022/06/14 05:26:10;;;;;;;6.77;5.10;;;;;;;;;;6128808;23;20445;-79
2022/06/14 05:28:39;;;;;;;6.40;4.53;;;;;;;;;;6239707;23;20419;-77
2022/06/14 05:31:36;;;;;;;6.47;4.75;;;;;;;;;;6192814;23;20032;-78
2022/06/14 05:34:31;;;;;;;15.05;4.47;;;;;;;;;;6196393;23;20004;-77
2022/06/14 05:37:14;;;;;;;5.55;4.15;;;;;;;;;;6214095;23;20142;-80
2022/06/14 05:39:54;;;;;;;7.57;4.30;;;;;;;;;;6217250;23;20242;-79
2022/06/14 05:42:21;;;;;;;5.20;3.90;;;;;;;;;;6225240;23;20423;-78
2022/06/14 05:44:48;;;;;;;5.05;3.38;;;;;;;;;;6225759;23;20484;-79
2022/06/14 05:47:19;;;;;;;6.78;3.67;;;;;;;;;;6193858;23;20074;-79
2022/06/14 05:49:53;;;;;;;8.10;3.70;;;;;;;;;;6217847;23;20006;-79
2022/06/14 05:52:41;;;;;;;5.80;3.60;;;;;;;;;;6193878;23;20012;-79
2022/06/14 05:55:18;;;;;;;5.35;3.50;;;;;;;;;;6193405;23;20000;-79
2022/06/14 05:57:47;;;;;;;6.22;3.55;;;;;;;;;;6218389;23;20398;-79
2022/06/14 06:00:19;;;;;;;4.50;3.97;;;;;;;;;;6193450;23;20000;-79
2022/06/14 06:02:57;;;;;;;4.68;3.53;;;;;;;;;;6227898;23;20062;-77
2022/06/14 06:05:28;;;;;;;5.07;3.60;;;;;;;;;;6251063;23;20027;-80
2022/06/14 06:08:20;;;;;;;5.20;4.13;;;;;;;;;;6248209;23;20000;-78
2022/06/14 06:10:47;;;;;;;7.35;3.72;;;;;;;;;;6198188;23;20011;-77
2022/06/14 06:13:28;;;;;;;7.00;3.67;;;;;;;;;;6219680;23;20011;-78
2022/06/14 06:16:01;;;;;;;16.67;3.47;;;;;;;;;;6246245;23;20019;-80
2022/06/14 06:18:34;;;;;;;6.32;3.35;;;;;;;;;;6249909;23;20420;-79
2022/06/14 06:21:28;;;;;;;2.88;2.67;;;;;;;;;;6173765;23;20035;-78
2022/06/14 06:24:12;;;;;;;2.97;2.70;;;;;;;;;;6261125;23;19999;-81
2022/06/14 06:26:42;;;;;;;5.57;3.42;;;;;;;;;;6247890;23;20000;-79
2022/06/14 06:29:47;;;;;;;3.60;3.30;;;;;;;;;;6228221;23;20332;-78
2022/06/14 06:32:12;;;;;;;8.80;3.47;;;;;;;;;;6248146;23;20011;-78
2022/06/14 06:34:38;;;;;;;9.60;3.17;;;;;;;;;;6217671;23;20005;-79
2022/06/14 06:37:06;;;;;;;5.43;3.05;;;;;;;;;;6242034;23;20008;-79
2022/06/14 06:39:45;;;;;;;7.07;4.47;;;;;;;;;;6244548;23;20000;-79
2022/06/14 06:42:12;;;;;;;4.10;2.85;;;;;;;;;;6248049;23;20258;-79
2022/06/14 06:45:12;;;;;;;11.90;6.18;;;;;;;;;;6227222;23;20048;-79
2022/06/14 06:47:48;;;;;;;3.10;2.40;;;;;;;;;;6244908;23;20007;-80
2022/06/14 06:50:42;;;;;;;6.53;2.67;;;;;;;;;;6168871;23;20101;-81
2022/06/14 06:53:18;;;;;;;6.00;3.92;;;;;;;;;;6216780;23;20015;-79
2022/06/14 06:55:49;;;;;;;5.82;3.28;;;;;;;;;;6243207;23;20075;-80
2022/06/14 06:58:24;;;;;;;5.55;2.50;;;;;;;;;;6214349;23;20359;-79
2022/06/14 07:00:51;;;;;;;3.70;2.30;;;;;;;;;;6241983;23;20446;-79
2022/06/14 07:03:36;;;;;;;4.03;2.97;;;;;;;;;;6200216;23;20000;-79
2022/06/14 07:06:02;;;;;;;8.10;5.00;;;;;;;;;;6241710;23;20011;-79
2022/06/14 07:08:38;;;;;;;4.25;2.35;;;;;;;;;;6192422;23;20031;-79
2022/06/14 07:11:04;;;;;;;6.55;3.30;;;;;;;;;;6192189;23;20008;-77
2022/06/14 07:13:32;;;;;;;8.07;4.78;;;;;;;;;;6218141;23;20038;-79
2022/06/14 07:16:24;;;;;;;4.68;3.38;;;;;;;;;;6244529;23;20004;-78
2022/06/14 07:19:22;;;;;;;2.70;2.45;;;;;;;;;;6244193;23;20161;-78
2022/06/14 07:21:54;;;;;;;2.63;2.15;;;;;;;;;;6219588;23;20003;-78
2022/06/14 07:24:34;;;;;;;6.70;3.45;;;;;;;;;;6201451;23;20023;-79
2022/06/14 07:27:14;;;;;;;4.05;2.50;;;;;;;;;;6217977;23;19996;-79
2022/06/14 07:29:52;;;;;;;2.53;2.33;;;;;;;;;;6218171;23;20004;-79
2022/06/14 07:32:31;;;;;;;4.32;2.35;;;;;;;;;;6193730;23;20106;-79
2022/06/14 07:34:57;;;;;;;4.13;2.85;;;;;;;;;;6216639;23;20006;-78
2022/06/14 07:37:39;;;;;;;4.60;2.80;;;;;;;;;;6243003;23;20027;-78
2022/06/14 07:40:22;;;;;;;5.05;2.63;;;;;;;;;;6220086;23;20374;-78
2022/06/14 07:43:07;;;;;;;3.58;2.60;;;;;;;;;;6197499;23;20443;-76
2022/06/14 07:45:43;;;;;;;2.72;2.38;;;;;;;;;;6245823;23;20171;-77
2022/06/14 07:48:09;;;;;;;4.32;2.38;;;;;;;;;;6191677;23;20000;-77
2022/06/14 07:50:44;;;;;;;4.93;2.80;;;;;;;;;;6217183;23;20102;-78
2022/06/14 07:53:25;;;;;;;2.92;2.35;;;;;;;;;;6218382;23;20001;-79
2022/06/14 07:56:19;;;;;;;4.22;2.47;;;;;;;;;;6194806;23;20456;-78
2022/06/14 07:59:06;;;;;;;4.45;2.70;;;;;;;;;;6236633;23;20004;-77
2022/06/14 08:01:39;;;;;;;6.72;3.78;;;;;;;;;;6218327;23;20008;-78
2022/06/14 08:04:09;;;;;;;9.68;3.72;;;;;;;;;;6252731;23;20367;-78
2022/06/14 08:07:04;;;;;;;8.95;4.00;;;;;;;;;;6244080;23;19996;-79
2022/06/14 08:09:51;;;;;;;8.27;3.20;;;;;;;;;;6221946;23;20004;-79
2022/06/14 08:12:40;;;;;;;5.97;3.00;;;;;;;;;;6217576;23;20015;-78
2022/06/14 08:15:05;;;;;;;;;;;;;;;;;;6244570;23;20058;-79
2022/06/14 08:18:00;;;;;;;3.20;2.90;;;;;;;;;;6242777;23;19911;-79
2022/06/14 08:20:56;;;;;;;10.23;6.82;;;;;;;;;;6209709;23;20389;-79
2022/06/14 08:23:26;;;;;;;8.30;6.78;;;;;;;;;;6219285;23;20355;-79
2022/06/14 08:25:55;;;;;;;10.57;5.85;;;;;;;;;;6218130;23;20065;-78
2022/06/14 08:28:35;;;;;;;12.82;7.38;;;;;;;;;;6192245;23;20000;-79
2022/06/14 08:31:15;;;;;;;6.25;4.30;;;;;;;;;;6216268;23;20443;-80
2022/06/14 08:34:02;;;;;;;7.32;3.58;;;;;;;;;;6192544;23;20066;-79
2022/06/14 08:36:47;;;;;;;5.35;3.10;;;;;;;;;;6217066;23;20000;-79
2022/06/14 08:39:20;;;;;;;4.93;3.65;;;;;;;;;;6223170;23;20000;-79
2022/06/14 08:42:07;;;;;;;6.68;3.65;;;;;;;;;;6201365;23;20419;-78
2022/06/14 08:44:36;;;;;;;3.95;2.97;;;;;;;;;;6249579;23;20004;-78
2022/06/14 08:47:16;;;;;;;16.73;12.35;;;;;;;;;;6194350;23;20342;-79
2022/06/14 08:50:00;;;;;;;5.43;2.70;;;;;;;;;;6245976;23;19996;-79
2022/06/14 08:53:02;;;;;;;4.90;3.55;;;;;;;;;;6218658;23;20004;-81
2022/06/14 08:55:46;;;;;;;4.90;4.40;;;;;;;;;;6246011;23;20411;-78
2022/06/14 08:58:21;;;;;;;9.50;3.70;;;;;;;;;;6247006;23;20011;-77
2022/06/14 09:00:57;;;;;;;9.93;6.78;;;;;;;;;;6256753;23;20000;-77
2022/06/14 09:03:41;;;;;;;4.60;3.85;;;;;;;;;;6219386;23;20022;-78
2022/06/14 09:06:28;;;;;;;6.15;4.65;;;;;;;;;;6246211;23;20008;-78
2022/06/14 09:09:32;;;;;;;6.63;4.60;;;;;;;;;;6245701;23;20079;-79
2022/06/14 09:12:10;;;;;;;5.82;5.00;;;;;;;;;;6188274;23;20012;-79
2022/06/14 09:14:36;;;;;;;5.28;3.90;;;;;;;;;;6246149;23;20023;-81
2022/06/14 09:17:23;;;;;;;9.15;6.53;;;;;;;;;;6245138;23;20023;-79
2022/06/14 09:20:16;;;;;;;9.85;5.75;;;;;;;;;;6247164;23;20065;-78
2022/06/14 09:22:51;;;;;;;5.32;4.65;;;;;;;;;;6197095;23;20000;-77
2022/06/14 09:25:45;;;;;;;7.95;3.90;;;;;;;;;;6248255;23;20004;-79
2022/06/14 09:28:29;;;;;;;9.43;5.05;;;;;;;;;;6219658;23;19996;-81
2022/06/14 09:31:12;;;;;;;5.97;3.95;;;;;;;;;;6246411;23;20011;-80
2022/06/14 09:33:56;;;;;;;11.35;4.57;;;;;;;;;;6245783;23;20083;-80
2022/06/14 09:36:31;;;;;;;5.90;4.35;;;;;;;;;;6245767;23;20004;-79
2022/06/14 09:39:23;;;;;;;4.88;4.03;;;;;;;;;;6223162;23;20034;-78
2022/06/14 09:42:16;;;;;;;7.30;5.13;;;;;;;;;;6224342;23;20012;-79
2022/06/14 09:45:06;;;;;;;10.68;3.92;;;;;;;;;;6245245;23;20004;-80
2022/06/14 09:47:38;;;;;;;8.85;4.85;;;;;;;;;;6252694;23;20004;-80
2022/06/14 09:50:42;;;;;;;12.73;3.45;;;;;;;;;;6244966;23;20003;-78
2022/06/14 09:53:36;;;;;;;11.82;5.22;;;;;;;;;;6245202;23;20436;-78
2022/06/14 09:56:01;;;;;;;6.72;3.67;;;;;;;;;;6245612;23;20004;-80
2022/06/14 09:58:45;;;;;;;9.25;5.15;;;;;;;;;;6218174;23;20486;-78
2022/06/14 10:01:25;;;;;;;8.02;3.80;;;;;;;;;;6251589;23;20138;-79
2022/06/14 10:03:59;;;;;;;4.88;3.20;;;;;;;;;;6246131;23;20001;-78
2022/06/14 10:06:48;;;;;;;4.05;3.17;;;;;;;;;;6244892;23;19996;-78
2022/06/14 10:09:32;;;;;;;10.38;7.88;;;;;;;;;;6246989;23;20000;-79
2022/06/14 10:12:15;;;;;;;5.82;3.25;;;;;;;;;;6247485;23;20000;-78
2022/06/14 10:14:44;;;;;;;5.20;3.05;;;;;;;;;;6245119;23;20032;-78
2022/06/14 10:17:29;;;;;;;9.10;3.03;;;;;;;;;;6244444;23;20415;-78
2022/06/14 10:20:20;;;;;;;4.07;2.60;;;;;;;;;;6224905;23;20011;-80
2022/06/14 10:23:08;;;;;;;10.27;3.47;;;;;;;;;;6194748;23;20350;-79
2022/06/14 10:29:10;;;;;;;6.93;2.90;;;;;;;;;;6221799;23;20379;-80
2022/06/14 10:31:39;;;;;;;4.35;2.88;;;;;;;;;;6114861;23;20037;-79
2022/06/14 10:34:27;;;;;;;7.32;2.60;;;;;;;;;;6247043;23;20403;-80
2022/06/14 10:36:59;;;;;;;6.18;2.55;;;;;;;;;;6194575;23;20031;-80
2022/06/14 10:39:52;;;;;;;13.07;2.72;;;;;;;;;;6247263;23;20066;-78
2022/06/14 10:42:25;;;;;;;6.40;2.92;;;;;;;;;;6177878;23;20015;-79
2022/06/14 10:44:56;;;;;;;13.20;2.50;;;;;;;;;;6219731;23;20011;-79
2022/06/14 10:47:52;;;;;;;8.20;2.60;;;;;;;;;;6245595;23;20335;-80
2022/06/14 10:50:47;;;;;;;32.08;3.42;;;;;;;;;;6221215;23;20000;-81
2022/06/14 10:53:15;;;;;;;4.40;2.10;;;;;;;;;;6245566;23;20420;-83
2022/06/14 10:56:04;;;;;;;4.28;2.30;;;;;;;;;;6220222;23;20004;-77
2022/06/14 10:58:58;;;;;;;4.45;2.60;;;;;;;;;;6221211;23;20406;-77
2022/06/14 11:01:51;;;;;;;11.68;2.90;;;;;;;;;;6252842;23;20008;-78
2022/06/14 11:04:34;;;;;;;5.28;3.70;;;;;;;;;;6217494;23;20309;-76
2022/06/14 11:07:25;;;;;;;11.05;4.95;;;;;;;;;;6244528;23;20009;-75
2022/06/14 11:10:23;;;;;;;18.83;12.32;;;;;;;;;;6222486;23;20069;-77
2022/06/14 11:12:54;;;;;;;23.63;14.85;;;;;;;;;;6244418;23;20005;-77
2022/06/14 11:15:26;;;;;;;17.85;11.55;;;;;;;;;;6244245;23;20000;-77
2022/06/14 11:18:06;;;;;;;29.75;16.45;;;;;;;;;;6245320;23;20005;-78
2022/06/14 11:20:32;;;;;;;8.10;2.60;;;;;;;;;;6246382;23;20028;-78
2022/06/14 11:23:28;;;;;;;16.20;5.28;;;;;;;;;;6217526;23;20031;-78
2022/06/14 11:26:23;;;;;;;16.77;7.20;;;;;;;;;;6215477;23;20009;-78
2022/06/14 11:28:57;;;;;;;30.63;14.38;;;;;;;;;;6216677;23;20023;-79
2022/06/14 11:31:27;;;;;;;10.85;6.35;;;;;;;;;;6217944;23;20347;-79
2022/06/14 11:34:23;;;;;;;16.45;6.35;;;;;;;;;;6217719;23;20008;-78
2022/06/14 11:37:22;;;;;;;20.90;7.95;;;;;;;;;;6244235;23;20015;-76
2022/06/14 11:40:16;;;;;;;11.90;6.40;;;;;;;;;;6253322;23;20008;-78
2022/06/14 11:43:07;;;;;;;21.27;11.18;;;;;;;;;;6220856;23;20069;-78
2022/06/14 11:45:33;;;;;;;12.50;5.18;;;;;;;;;;6195988;23;20397;-78
2022/06/14 11:48:19;;;;;;;12.38;3.83;;;;;;;;;;6243912;23;20004;-77
2022/06/14 11:51:26;;;;;;;11.25;5.45;;;;;;;;;;6217425;23;20007;-77
2022/06/14 11:54:23;;;;;;;8.77;4.78;;;;;;;;;;6092169;23;20030;-77
2022/06/14 11:57:04;;;;;;;14.52;3.60;;;;;;;;;;6216897;23;20008;-78
2022/06/14 11:59:36;;;;;;;6.22;3.42;;;;;;;;;;6249947;23;20404;-77
2022/06/14 12:02:38;;;;;;;7.68;3.25;;;;;;;;;;6225945;23;20019;-75
2022/06/14 12:05:04;;;;;;;11.32;5.13;;;;;;;;;;6244541;23;20012;-78
2022/06/14 12:07:39;;;;;;;14.15;7.82;;;;;;;;;;6244686;23;20457;-77
2022/06/14 12:10:31;;;;;;;17.00;7.90;;;;;;;;;;6218382;23;20015;-77
2022/06/14 12:13:05;;;;;;;13.50;8.93;;;;;;;;;;6222481;23;20478;-77
2022/06/14 12:15:40;;;;;;;20.05;8.45;;;;;;;;;;6246033;23;20001;-78
2022/06/14 12:18:07;;;;;;;12.07;5.65;;;;;;;;;;6245876;23;20321;-78
2022/06/14 12:20:41;;;;;;;13.35;5.50;;;;;;;;;;6202393;23;20008;-75
2022/06/14 12:23:20;;;;;;;7.90;4.80;;;;;;;;;;6219415;23;20004;-76
2022/06/14 12:29:00;;;;;;;20.05;12.25;;;;;;;;;;6223117;23;20353;-76
2022/06/14 12:32:03;;;;;;;13.40;5.50;;;;;;;;;;6221967;23;20011;-78
2022/06/14 12:34:42;;;;;;;9.40;3.92;;;;;;;;;;6246600;23;20000;-78
2022/06/14 12:37:07;;;;;;;14.43;3.60;;;;;;;;;;6222763;23;20026;-79
2022/06/14 12:39:37;;;;;;;26.30;15.77;;;;;;;;;;6248617;23;20008;-78
2022/06/14 12:42:36;;;;;;;11.65;7.05;;;;;;;;;;6201104;23;20408;-76
2022/06/14 12:45:14;;;;;;;9.32;4.20;;;;;;;;;;6208642;23;20007;-77
2022/06/14 12:47:48;;;;;;;10.80;6.65;;;;;;;;;;6219277;23;20412;-78
2022/06/14 12:50:21;;;;;;;9.57;5.47;;;;;;;;;;6245824;23;20011;-77
2022/06/14 12:52:50;;;;;;;5.70;2.88;;;;;;;;;;6194152;23;20079;-78
2022/06/14 12:55:20;;;;;;;6.05;3.72;;;;;;;;;;6169835;23;20062;-78
2022/06/14 12:58:13;;;;;;;4.65;3.10;;;;;;;;;;6219158;23;20000;-79
2022/06/14 13:01:13;;;;;;;11.07;6.70;;;;;;;;;;6196980;23;20008;-77
2022/06/14 13:03:58;;;;;;;5.82;3.88;;;;;;;;;;6249237;23;20364;-78
2022/06/14 13:06:57;;;;;;;7.00;2.70;;;;;;;;;;6218257;23;20367;-77
2022/06/14 13:09:34;;;;;;;6.38;4.00;;;;;;;;;;6245382;23;20439;-77
2022/06/14 13:12:25;;;;;;;12.40;4.75;;;;;;;;;;6221223;23;20008;-78
2022/06/14 13:15:25;;;;;;;7.63;4.78;;;;;;;;;;6219366;23;20008;-78
2022/06/14 13:18:07;;;;;;;4.35;3.08;;;;;;;;;;6218734;23;20469;-78
2022/06/14 13:20:35;;;;;;;6.20;4.55;;;;;;;;;;6220978;23;20015;-78
2022/06/14 13:23:33;;;;;;;25.58;11.98;;;;;;;;;;6251424;23;20012;-77
2022/06/14 13:26:20;;;;;;;9.02;5.15;;;;;;;;;;6221578;23;20011;-77
2022/06/14 13:29:08;;;;;;;18.60;8.63;;;;;;;;;;6245547;23;20454;-77
2022/06/14 13:32:14;;;;;;;14.93;6.82;;;;;;;;;;6245460;23;20000;-77
2022/06/14 13:34:57;;;;;;;13.80;5.53;;;;;;;;;;6245927;23;20404;-77
2022/06/14 13:37:35;;;;;;;7.93;2.70;;;;;;;;;;6245349;23;20011;-77
2022/06/14 13:40:22;;;;;;;6.72;2.63;;;;;;;;;;6245888;23;20004;-81
2022/06/14 13:42:56;;;;;;;3.85;2.60;;;;;;;;;;6258100;23;20008;-80
2022/06/14 13:45:46;;;;;;;3.75;2.75;;;;;;;;;;6219544;23;20005;-82
2022/06/14 13:48:32;;;;;;;3.83;2.72;;;;;;;;;;6218431;23;20004;-80
2022/06/14 13:51:23;;;;;;;10.73;2.70;;;;;;;;;;6218597;23;20398;-80
2022/06/14 13:54:00;;;;;;;10.82;2.40;;;;;;;;;;6223305;23;20004;-81
2022/06/14 13:56:36;;;;;;;6.75;2.90;;;;;;;;;;6198374;23;20478;-82
2022/06/14 13:59:11;;;;;;;9.23;2.83;;;;;;;;;;6200617;23;20421;-81
2022/06/14 14:01:37;;;;;;;4.88;2.33;;;;;;;;;;6197462;23;20004;-81
2022/06/14 14:04:21;;;;;;;2.88;2.53;;;;;;;;;;6252759;23;20004;-81
2022/06/14 14:06:49;;;;;;;16.42;2.67;;;;;;;;;;6245288;23;20062;-80
2022/06/14 14:09:33;;;;;;;6.25;2.60;;;;;;;;;;6219295;23;20000;-80
2022/06/14 14:12:07;;;;;;;3.38;2.20;;;;;;;;;;6218142;23;20000;-80
2022/06/14 14:15:00;;;;;;;4.10;2.45;;;;;;;;;;6219349;23;20008;-80
2022/06/14 14:17:40;;;;;;;5.57;2.17;;;;;;;;;;6244993;23;20004;-80
2022/06/14 14:20:24;;;;;;;4.97;2.00;;;;;;;;;;6201092;23;20004;-81
2022/06/14 14:23:09;;;;;;;14.00;2.30;;;;;;;;;;6250562;23;20008;-80
2022/06/14 14:25:40;;;;;;;5.15;2.10;;;;;;;;;;6246155;23;20071;-81
2022/06/14 14:28:11;;;;;;;3.05;2.22;;;;;;;;;;6194369;23;20070;-79
2022/06/14 14:30:51;;;;;;;12.93;2.80;;;;;;;;;;6245233;23;20000;-81
2022/06/14 14:33:20;;;;;;;4.88;1.92;;;;;;;;;;6246674;23;20059;-81
2022/06/14 14:35:49;;;;;;;9.25;2.30;;;;;;;;;;6219587;23;20358;-80
2022/06/14 14:38:26;;;;;;;7.22;2.35;;;;;;;;;;6224667;23;20000;-80
2022/06/14 14:43:40;;;;;;;4.18;2.15;;;;;;;;;;6233984;23;20046;-80
2022/06/14 14:46:10;;;;;;;15.15;2.60;;;;;;;;;;6193362;23;19997;-81
2022/06/14 14:49:05;;;;;;;3.67;2.45;;;;;;;;;;6245002;23;20067;-81
2022/06/14 14:51:33;;;;;;;4.15;2.40;;;;;;;;;;6218007;23;20004;-81
2022/06/14 14:53:59;;;;;;;4.13;2.45;;;;;;;;;;6245038;23;20008;-81
2022/06/14 14:56:27;;;;;;;3.85;2.17;;;;;;;;;;6244983;23;20070;-81
2022/06/14 14:58:54;;;;;;;5.15;2.30;;;;;;;;;;6193847;23;20004;-80
2022/06/14 15:07:24;;;;;;;4.32;2.33;;;;;;;;;;6247481;23;20545;-81
2022/06/14 15:10:22;;;;;;;6.00;2.60;;;;;;;;;;6244508;23;20089;-81
2022/06/14 15:13:16;;;;;;;5.82;2.58;;;;;;;;;;6215217;23;20335;-81
2022/06/14 15:15:44;;;;;;;8.80;2.47;;;;;;;;;;6222791;23;20000;-80
2022/06/14 15:21:32;;;;;;;6.50;3.08;;;;;;;;;;6244750;23;20054;-79
2022/06/14 15:24:00;;;;;;;3.20;2.35;;;;;;;;;;6203795;23;20000;-81
2022/06/14 15:26:26;;;;;;;4.80;2.80;;;;;;;;;;6222707;23;20408;-80
2022/06/14 15:28:53;;;;;;;5.32;2.95;;;;;;;;;;6226819;23;20087;-82
2022/06/14 15:31:25;;;;;;;4.55;2.70;;;;;;;;;;6194897;23;20008;-81
2022/06/14 15:33:54;;;;;;;5.80;2.67;;;;;;;;;;6244426;23;20423;-80
2022/06/14 15:36:36;;;;;;;5.82;2.92;;;;;;;;;;6217770;23;20007;-80
2022/06/14 15:39:16;;;;;;;5.30;2.42;;;;;;;;;;6244140;23;20523;-82
2022/06/14 15:41:41;;;;;;;6.60;2.55;;;;;;;;;;6217972;23;20008;-80
2022/06/14 15:44:13;;;;;;;8.35;3.10;;;;;;;;;;6250066;23;20027;-79
2022/06/14 15:46:54;;;;;;;7.57;3.03;;;;;;;;;;6247142;23;20351;-81
2022/06/14 15:49:43;;;;;;;6.20;2.90;;;;;;;;;;6217124;23;20004;-80
2022/06/14 15:52:16;;;;;;;5.93;3.08;;;;;;;;;;6247557;23;20004;-79
2022/06/14 15:54:42;;;;;;;6.43;3.15;;;;;;;;;;6218423;23;20448;-81
2022/06/14 15:57:18;;;;;;;6.63;2.92;;;;;;;;;;6217581;23;20008;-81
2022/06/14 15:59:46;;;;;;;4.28;3.05;;;;;;;;;;6217618;23;20088;-79
2022/06/14 16:02:46;;;;;;;4.25;2.78;;;;;;;;;;6167649;23;20097;-79
2022/06/14 16:05:21;;;;;;;3.97;2.70;;;;;;;;;;6203283;23;20008;-81
2022/06/14 16:07:52;;;;;;;3.40;2.70;;;;;;;;;;6217492;23;20009;-80
2022/06/14 16:10:24;;;;;;;3.88;2.90;;;;;;;;;;6193022;23;19996;-81
2022/06/14 16:12:51;;;;;;;5.68;2.72;;;;;;;;;;6217945;23;20008;-80